Reese River Valley, Nevada Weather observations

Data are for 10 minute period ending at time listed.
 Day   Time   Solar   Ave.   Ave.  Ave.  Vector  Max.   Baro.   Total    
  of    of     Rad.   Air    Rel.  Wind   Wind   Wind  Press.  Precip.   
Year   Day            Temp.  Hum.  Speed  Dir.   Gust                    
2017   (PST)  Kw/m2    F      %     mph   deg.    mph    mb.     in.     
-------------------------------------------------------------------------
  53    0:30   0.00   29.6    96    3.8   358     5.6   813.9    0.00 
  53    0:40   0.00   29.6    96    3.7   352     5.0   813.9    0.00 
  53    0:50   0.00   29.6    97    3.2     5     4.6   813.7    0.00 
  53    1:00   0.00   29.6    97    2.9     0     4.2   813.6    0.00 
  53    1:10   0.00   29.6    97    2.5   349     3.6   813.5    0.00 
  53    1:20   0.00   29.5    97    2.7    14     3.7   813.5    0.00 
  53    1:30   0.00   29.4    97    1.6     8     2.5   813.5    0.00 
  53    1:40   0.00   29.4    97    2.1    48     3.1   813.4    0.00 
  53    1:50   0.00   29.2    97    1.9    47     3.1   813.4    0.00 
  53    2:00   0.00   29.1    97    2.1    57     3.5   813.2    0.00 
  53    2:10   0.00   28.9    97    1.8    64     3.5   813.0    0.00 
  53    2:20   0.00   28.8    97    2.5    40     3.4   812.8    0.00 
  53    2:30   0.00   28.4    96    1.4   310     3.7   812.6    0.00 
  53    2:40   0.00   27.4    96    3.6   294     4.7   812.5    0.00 
  53    2:50   0.00   27.5    97    3.6   308     4.8   812.4    0.00 
  53    3:00   0.00   27.7    97    1.3   309     2.3   812.4    0.00 
  53    3:10   0.00   27.5    97    0.9   228     1.6   812.3    0.00 
  53    3:20   0.00   27.1    97    2.3   114     3.2   812.2    0.00 
  53    3:30   0.00   27.2    97    3.7   103     4.7   812.2    0.00 
  53    3:40   0.00   27.4    97    2.9   106     4.4   812.2    0.00 
  53    3:50   0.00   27.4    97    3.4   119     4.4   812.1    0.00 
  53    4:00   0.00   27.5    97    2.8   111     4.2   812.1    0.00 
  53    4:10   0.00   27.3    97    1.2   135     2.7   812.1    0.00 
  53    4:20   0.00   27.0    97    2.1   270     4.0   812.0    0.00 
  53    4:30   0.00   27.1    97    1.9   240     2.6   811.9    0.00 
  53    4:40   0.00   26.4    96    2.7   260     4.2   811.9    0.00 
  53    4:50   0.00   26.8    97    2.7   259     3.8   811.9    0.00 
  53    5:00   0.00   27.3    97    1.3   307     2.8   811.9    0.00 
  53    5:10   0.00   27.3    97    1.6    87     2.9   812.0    0.00 
  53    5:20   0.00   27.0    97    3.6   112     4.6   811.8    0.00 
  53    5:30   0.00   27.0    97    3.6   116     6.6   811.8    0.00 
  53    5:40   0.00   27.4    97    2.4   131     4.8   811.9    0.00 
  53    5:50   0.00   27.9    97    2.7   169     5.3   811.8    0.00 
  53    6:00   0.00   28.0    97    3.3   194     4.7   811.9    0.00 
  53    6:10   0.00   27.9    97    3.2   183     6.6   812.0    0.00 
  53    6:20   0.00   28.1    97    3.8   172     6.3   812.0    0.00 
  53    6:30   0.00   28.3    97    4.3   204    14.4   812.0    0.00 
  53    6:40   0.00   28.4    96    8.3   231    16.0   812.1    0.00 
  53    6:50   0.01   28.4    94    8.0   225    14.1   812.0    0.00 
  53    7:00   0.01   28.6    92    5.9   231    12.9   812.1    0.00 
  53    7:10   0.03   28.7    91    5.6   179     9.9   812.0    0.00 
  53    7:20   0.02   28.9    90    4.4   163     9.4   812.1    0.00 
  53    7:30   0.04   29.1    88    5.5   159     9.8   812.1    0.00 
  53    7:40   0.04   29.5    87    7.2   214    20.4   812.5    0.00 
  53    7:50   0.07   28.8    82    8.3   264    16.6   812.7    0.00 
  53    8:00   0.08   28.6    75    6.7   270    15.3   812.9    0.00 
  53    8:10   0.05   28.3    75    9.0   273    22.9   813.0    0.00 
  53    8:20   0.07   27.9    76    4.3   258    11.9   813.1    0.00 
  53    8:30   0.11   28.0    74    5.7   249    13.4   813.2    0.00 
  53    8:40   0.12   27.8    73    4.8   302    10.4   813.2    0.00 
  53    8:50   0.14   28.0    71    4.5   236    11.6   813.3    0.00 
  53    9:00   0.26   28.6    67    2.9   300     6.9   813.5    0.00 
  53    9:10   0.38   28.8    63    4.0   292    13.4   813.5    0.00 
  53    9:20   0.67   30.9    57    4.2   293    11.8   813.5    0.00 
  53    9:30   0.57   30.0    60    9.0   286    15.9   813.5    0.00 
  53    9:40   0.56   30.3    58    4.9   329    14.5   813.4    0.00 
  53    9:50   0.38   29.9    54    7.0   297    17.8   813.5    0.00 
  53   10:00   0.31   29.0    56   11.7   296    21.9   813.5    0.00 
  53   10:10   0.47   29.0    56   11.0   304    21.4   813.4    0.00 
  53   10:20   0.60   29.6    56   11.2   293    18.8   813.3    0.01 
  53   10:30   0.70   30.4    55    8.8   283    15.3   813.2    0.00 
  53   10:40   0.71   30.4    54   11.6   301    18.7   813.1    0.00 
  53   10:50   0.73   30.8    51    8.1   290    15.4   813.0    0.00 
  53   11:00   0.74   31.5    50    7.3   285    15.6   812.9    0.01 
  53   11:10   0.74   31.3    51    8.0   286    17.3   812.8    0.01 
  53   11:20   0.75   31.4    45    4.7   301    10.9   812.7    0.00 
  53   11:30   0.76   31.9    46    8.1   272    13.5   812.6    0.01 
  53   11:40   0.78   32.6    41    3.6   316    10.2   812.4    0.01 
  53   11:50   0.80   32.8    46    8.2   304    14.0   812.2    0.00 
  53   12:00   0.82   33.2    42    9.5   331    18.7   812.0    0.00 
  53   12:10   0.80   33.5    44    9.6   299    15.9   811.9    0.00 
  53   12:20   0.68   33.5    41    9.4   298    21.4   811.8    0.00 
  53   12:30   0.64   32.9    41   10.9   301    19.6   811.7    0.00 
  53   12:40   0.69   32.8    39    9.8   300    21.8   811.6    0.00 
  53   12:50   0.35   32.3    38    8.5   299    13.7   811.6    0.00 
  53   13:00   0.56   32.5    39   11.4   290    18.2   811.5    0.00 
  53   13:10   0.63   32.7    37   10.7   278    16.1   811.3    0.00 
  53   13:20   0.39   33.1    35    9.4   282    16.4   811.2    0.00 
  53   13:30   0.62   33.3    36   10.0   286    16.6   811.0    0.00 
  53   13:40   0.30   32.5    35    8.7   309    16.3   810.9    0.00 
  53   13:50   0.35   32.6    36    8.9   297    14.5   810.7    0.00 
  53   14:00   0.19   31.8    38    9.4   296    13.1   810.7    0.00 
  53   14:10   0.19   31.7    38   10.7   288    15.3   810.6    0.00 
  53   14:20   0.51   32.5    36   10.1   294    16.4   810.6    0.00 
  53   14:30   0.51   33.5    35    9.2   293    15.2   810.6    0.00 
  53   14:40   0.41   33.4    35    9.1   292    13.4   810.5    0.00 
  53   14:50   0.49   33.7    32    6.1   318    11.8   810.4    0.00 
  53   15:00   0.31   33.2    33    7.9   306    13.3   810.3    0.00 
  53   15:10   0.37   33.6    32   11.4   316    21.3   810.2    0.00 
  53   15:20   0.26   32.7    33   14.2   309    21.5   810.2    0.00 
  53   15:30   0.20   31.7    33   13.9   315    20.0   810.2    0.00 
  53   15:40   0.18   31.7    31   11.8   312    19.3   810.2    0.00 
  53   15:50   0.29   32.2    30   13.0   281    18.9   810.1    0.00 
  53   16:00   0.15   31.2    29   11.6   282    18.4   810.1    0.00 
  53   16:10   0.28   31.8    33   11.8   306    17.5   810.1    0.00 
  53   16:20   0.11   30.9    35   11.9   317    17.0   810.1    0.00 
  53   16:30   0.07   29.8    36    9.7   309    14.3   810.1    0.00 
  53   16:40   0.08   29.8    32    7.6   309    12.4   810.0    0.00 
  53   16:50   0.07   29.7    37    9.1   321    13.4   810.1    0.00 
  53   17:00   0.04   29.5    35    9.0   316    12.7   810.2    0.00 
  53   17:10   0.05   29.4    35    6.5   324     8.8   810.1    0.00 
  53   17:20   0.02   29.1    37    8.0   326    12.4   810.1    0.00 
  53   17:30   0.01   28.7    39    7.5   343     9.9   810.1    0.00 
  53   17:40   0.00   28.3    41    8.1   344    10.5   810.0    0.00 
  53   17:50   0.00   28.1    42    7.4   335    10.5   809.9    0.00 
  53   18:00   0.00   27.8    44    6.3   337     9.4   809.8    0.00 
  53   18:10   0.00   27.5    46    5.9   332     8.4   809.8    0.00 
  53   18:20   0.00   27.2    48    5.9   341     8.3   809.7    0.00 
  53   18:30   0.00   26.7    51    4.6   336     6.6   809.6    0.00 
  53   18:40   0.00   25.5    52    3.4   315     4.8   809.5    0.00 
  53   18:50   0.00   23.8    54    3.3   289     5.1   809.3    0.00 
  53   19:00   0.00   22.9    56    3.4   271     6.0   809.3    0.00 
  53   19:10   0.00   21.9    59    1.7   265     4.2   809.2    0.00 
  53   19:20   0.00   22.8    57    3.9   287     7.4   809.1    0.00 
  53   19:30   0.00   23.5    56    4.4   299     8.1   809.1    0.00 
  53   19:40   0.00   24.5    56    3.6    18     7.2   809.2    0.00 
  53   19:50   0.00   23.8    62    2.8    54     4.5   809.2    0.00 
  53   20:00   0.00   23.5    64    1.8    28     2.9   809.2    0.00 
  53   20:10   0.00   23.9    63    0.8    21     1.9   809.1    0.00 
  53   20:20   0.00   25.2    54    7.1   298    13.4   809.1    0.00 
  53   20:30   0.00   26.0    51   10.7   294    17.0   809.0    0.00 
  53   20:40   0.00   25.9    51   10.8   298    15.8   809.0    0.00 
  53   20:50   0.00   25.8    54   10.8   292    16.1   809.0    0.00 
  53   21:00   0.00   25.3    57   10.2   283    14.8   809.0    0.00 
  53   21:10   0.00   24.6    60    8.2   280    11.6   808.9    0.00 
  53   21:20   0.00   24.5    62    9.2   285    12.6   808.9    0.00 
  53   21:30   0.00   24.6    65   10.9   278    15.1   809.0    0.00 
  53   21:40   0.00   24.0    68    9.5   271    15.4   808.9    0.00 
  53   21:50   0.00   23.5    66    8.9   276    13.8   808.9    0.00 
  53   22:00   0.00   23.6    62    8.6   275    12.6   808.9    0.00 
  53   22:10   0.00   23.8    61    9.5   272    13.4   808.8    0.00 
  53   22:20   0.00   23.8    60    8.1   279    12.8   808.7    0.00 
  53   22:30   0.00   23.8    59    8.2   279    12.3   808.7    0.00 
  53   22:40   0.00   23.9    59   10.1   279    14.5   808.5    0.00 
  53   22:50   0.00   23.7    60    6.9   280    12.6   808.6    0.00 
  53   23:00   0.00   23.2    61    5.7   289    12.4   808.6    0.00 
  53   23:10   0.00   23.4    60    5.9   281    10.6   808.6    0.00 
  53   23:20   0.00   22.9    64    4.7    62    10.1   808.7    0.00 
  53   23:30   0.00   23.0    72    8.9    87    13.7   808.6    0.00 
  53   23:40   0.00   23.6    61    7.3   106    11.7   808.5    0.00 
  53   23:50   0.00   24.1    54    3.7    88    11.4   808.5    0.00 
  54    0:00   0.00   23.8    56    3.1   206     6.0   808.6    0.00 
  54    0:10   0.00   23.2    56    6.1   256    11.2   808.6    0.00 
  54    0:20   0.00   23.3    54    3.7   176    12.1   808.6    0.00 

Return to Reese River Valley graphs page.


Western Regional Climate Center,wrcc@dri.edu